Hlavní strana
METAR-TAF:

METAR-TAF

Letiště :

Nižnij Novgorod, Rusko

zeměpisná šířka: 56-19-48N, zeměpisná délka: 044-00E, výška: 78 m

Aktuální stav počasí

Zpráva byla vytvořena před 30 minutami, v 00:30 UTC
Jihojihozápadní vítr 12 kt
Teplota 10°C
Vlhkost vzduchu 87%
Tlak 994 hPa
Viditelnost 10 km a více
Skoro jasno ve výšce 3300 ft

METAR: UWGG 220030Z 20006MPS 9999 FEW033 10/08 Q0994 R18L/290050 NOSIG

Čas: 04:00 (01:00 UTC)

Předpověď počasí

Zpráva byla vytvořena před 2 hodinami a 10 minutami, v 22:50 UTC
Předpověď platná od 22 v 00 UTC do 22 v 24 UTC
Jihojihozápadní vítr 10 kt s nárazy do 23 kt
Viditelnost: 8000 m
Oblačno až skoro zataženo ve výšce 1600 ft, Cumulonimbus.
Dočasný
od 22 v 06 UTC do 22 v 21 UTC
Jihozápadní vítr 19 kt s nárazy do 29 kt

TAF: UWGG 212250Z 2200/2224 20005G12MPS 8000 BKN016CB TX11/2212Z TN07/2203Z TEMPO 2206/2221 22010G15MPS

Stav a předpovědi počasí z více než 4 000 letišť (zprávy METAR a TAF).

Červené a žluté tečky na mapě představují dostupné meteorologické stanice.

Když kurzor umístíte na tečku, zobrazí se název stanice.

Pak kliknutím zobrazíte stav a předpověď počasí.

Chcete-li změnit mapu, kliknutím na zelené tlačítko se znaménkem +mapu přiblížíte, kliknutím na zelené tlačítko se znaménkem – mapu oddálíte a kliknutím na zelené šipky přejdete na sousední mapy.


METAR-TAF: